sensor_id;sensor_type;location;lat;lon;timestamp;temperature;humidity
13665;DHT22;6905;50.770;6.730;2023-09-18T00:03:57;20.60;99.90
13665;DHT22;6905;50.770;6.730;2023-09-18T00:06:49;20.60;99.90
13665;DHT22;6905;50.770;6.730;2023-09-18T00:09:39;20.60;99.90
13665;DHT22;6905;50.770;6.730;2023-09-18T00:12:58;20.60;99.90
13665;DHT22;6905;50.770;6.730;2023-09-18T00:16:21;20.60;99.90
13665;DHT22;6905;50.770;6.730;2023-09-18T00:19:31;20.50;99.90
13665;DHT22;6905;50.770;6.730;2023-09-18T00:25:53;20.50;99.90
13665;DHT22;6905;50.770;6.730;2023-09-18T00:28:55;20.50;99.90
13665;DHT22;6905;50.770;6.730;2023-09-18T00:45:38;20.50;99.90
13665;DHT22;6905;50.770;6.730;2023-09-18T01:06:09;20.40;99.90
13665;DHT22;6905;50.770;6.730;2023-09-18T01:12:44;20.30;99.90
13665;DHT22;6905;50.770;6.730;2023-09-18T01:15:56;20.20;99.90
13665;DHT22;6905;50.770;6.730;2023-09-18T01:18:51;20.20;99.90
13665;DHT22;6905;50.770;6.730;2023-09-18T01:35:00;20.10;99.90
13665;DHT22;6905;50.770;6.730;2023-09-18T01:37:55;20.10;99.90
13665;DHT22;6905;50.770;6.730;2023-09-18T01:40:42;20.00;99.90
13665;DHT22;6905;50.770;6.730;2023-09-18T01:46:53;20.00;99.90
13665;DHT22;6905;50.770;6.730;2023-09-18T01:49:36;20.00;99.90
13665;DHT22;6905;50.770;6.730;2023-09-18T01:59:15;19.90;99.90
13665;DHT22;6905;50.770;6.730;2023-09-18T02:02:21;19.90;99.90
13665;DHT22;6905;50.770;6.730;2023-09-18T02:05:43;19.90;99.90
13665;DHT22;6905;50.770;6.730;2023-09-18T02:11:51;19.90;99.90
13665;DHT22;6905;50.770;6.730;2023-09-18T02:18:18;20.00;99.90
13665;DHT22;6905;50.770;6.730;2023-09-18T02:21:30;20.10;99.90
13665;DHT22;6905;50.770;6.730;2023-09-18T02:24:17;20.10;99.90
13665;DHT22;6905;50.770;6.730;2023-09-18T02:27:46;20.10;99.90
13665;DHT22;6905;50.770;6.730;2023-09-18T02:31:16;20.30;99.90
13665;DHT22;6905;50.770;6.730;2023-09-18T03:17:30;20.60;99.90
13665;DHT22;6905;50.770;6.730;2023-09-18T03:20:08;20.60;99.90
13665;DHT22;6905;50.770;6.730;2023-09-18T03:22:39;20.60;99.90
13665;DHT22;6905;50.770;6.730;2023-09-18T03:25:10;20.60;99.90
13665;DHT22;6905;50.770;6.730;2023-09-18T03:27:53;20.60;99.90
13665;DHT22;6905;50.770;6.730;2023-09-18T03:30:27;20.60;99.90
13665;DHT22;6905;50.770;6.730;2023-09-18T03:33:12;20.50;99.90
13665;DHT22;6905;50.770;6.730;2023-09-18T03:35:51;20.50;99.90
13665;DHT22;6905;50.770;6.730;2023-09-18T03:38:36;20.50;99.90
13665;DHT22;6905;50.770;6.730;2023-09-18T03:41:11;20.50;99.90
13665;DHT22;6905;50.770;6.730;2023-09-18T03:47:04;20.50;99.90
13665;DHT22;6905;50.770;6.730;2023-09-18T03:49:38;20.50;99.90
13665;DHT22;6905;50.770;6.730;2023-09-18T03:52:18;20.50;99.90
13665;DHT22;6905;50.770;6.730;2023-09-18T03:55:00;20.50;99.90
13665;DHT22;6905;50.770;6.730;2023-09-18T03:57:47;20.40;99.90
13665;DHT22;6905;50.770;6.730;2023-09-18T04:00:29;20.40;99.90
13665;DHT22;6905;50.770;6.730;2023-09-18T04:03:13;20.40;99.90
13665;DHT22;6905;50.770;6.730;2023-09-18T04:06:21;20.50;99.90
13665;DHT22;6905;50.770;6.730;2023-09-18T04:08:51;20.40;99.90
13665;DHT22;6905;50.770;6.730;2023-09-18T04:11:21;20.40;99.90
13665;DHT22;6905;50.770;6.730;2023-09-18T04:14:08;20.40;99.90
13665;DHT22;6905;50.770;6.730;2023-09-18T04:17:06;20.30;99.90
13665;DHT22;6905;50.770;6.730;2023-09-18T04:19:48;20.30;99.90
13665;DHT22;6905;50.770;6.730;2023-09-18T04:22:22;20.30;99.90
13665;DHT22;6905;50.770;6.730;2023-09-18T04:24:54;20.30;99.90
13665;DHT22;6905;50.770;6.730;2023-09-18T04:27:41;20.30;99.90
13665;DHT22;6905;50.770;6.730;2023-09-18T04:30:11;20.20;99.90
13665;DHT22;6905;50.770;6.730;2023-09-18T04:32:49;20.20;99.90
13665;DHT22;6905;50.770;6.730;2023-09-18T04:35:35;20.30;99.90
13665;DHT22;6905;50.770;6.730;2023-09-18T04:38:16;20.30;99.90
13665;DHT22;6905;50.770;6.730;2023-09-18T04:40:45;20.20;99.90
13665;DHT22;6905;50.770;6.730;2023-09-18T04:43:14;20.20;99.90
13665;DHT22;6905;50.770;6.730;2023-09-18T04:45:50;20.20;99.90
13665;DHT22;6905;50.770;6.730;2023-09-18T04:48:36;20.20;99.90
13665;DHT22;6905;50.770;6.730;2023-09-18T04:51:03;20.20;99.90
13665;DHT22;6905;50.770;6.730;2023-09-18T04:53:32;20.20;99.90
13665;DHT22;6905;50.770;6.730;2023-09-18T04:55:59;20.20;99.90
13665;DHT22;6905;50.770;6.730;2023-09-18T04:58:26;20.20;99.90
13665;DHT22;6905;50.770;6.730;2023-09-18T05:00:54;20.30;99.90
13665;DHT22;6905;50.770;6.730;2023-09-18T05:03:24;20.20;99.90
13665;DHT22;6905;50.770;6.730;2023-09-18T05:05:52;20.20;99.90
13665;DHT22;6905;50.770;6.730;2023-09-18T05:08:19;20.20;99.90
13665;DHT22;6905;50.770;6.730;2023-09-18T05:10:50;20.10;99.90
13665;DHT22;6905;50.770;6.730;2023-09-18T05:13:18;20.10;99.90
13665;DHT22;6905;50.770;6.730;2023-09-18T05:15:44;20.10;99.90
13665;DHT22;6905;50.770;6.730;2023-09-18T05:18:15;20.10;99.90
13665;DHT22;6905;50.770;6.730;2023-09-18T05:20:43;20.10;99.90
13665;DHT22;6905;50.770;6.730;2023-09-18T05:23:10;20.10;99.90
13665;DHT22;6905;50.770;6.730;2023-09-18T05:25:41;20.10;99.90
13665;DHT22;6905;50.770;6.730;2023-09-18T05:31:38;20.10;99.90
13665;DHT22;6905;50.770;6.730;2023-09-18T05:34:13;20.10;99.90
13665;DHT22;6905;50.770;6.730;2023-09-18T05:36:42;20.10;99.90
13665;DHT22;6905;50.770;6.730;2023-09-18T05:39:24;20.10;99.90
13665;DHT22;6905;50.770;6.730;2023-09-18T05:41:54;20.10;99.90
13665;DHT22;6905;50.770;6.730;2023-09-18T05:44:21;20.10;99.90
13665;DHT22;6905;50.770;6.730;2023-09-18T05:46:54;20.10;99.90
13665;DHT22;6905;50.770;6.730;2023-09-18T05:49:22;20.10;99.90
13665;DHT22;6905;50.770;6.730;2023-09-18T05:51:53;20.10;99.90
13665;DHT22;6905;50.770;6.730;2023-09-18T05:54:26;20.20;99.90
13665;DHT22;6905;50.770;6.730;2023-09-18T05:56:54;20.20;99.90
13665;DHT22;6905;50.770;6.730;2023-09-18T05:59:38;20.20;99.90
13665;DHT22;6905;50.770;6.730;2023-09-18T06:02:24;20.20;99.90
13665;DHT22;6905;50.770;6.730;2023-09-18T06:05:09;20.20;99.90
13665;DHT22;6905;50.770;6.730;2023-09-18T06:07:45;20.30;99.90
13665;DHT22;6905;50.770;6.730;2023-09-18T06:10:15;20.30;99.90
13665;DHT22;6905;50.770;6.730;2023-09-18T06:12:49;20.30;99.90
13665;DHT22;6905;50.770;6.730;2023-09-18T06:15:19;20.30;99.90
13665;DHT22;6905;50.770;6.730;2023-09-18T06:17:51;20.30;99.90
13665;DHT22;6905;50.770;6.730;2023-09-18T06:20:18;20.30;99.90
13665;DHT22;6905;50.770;6.730;2023-09-18T06:22:45;20.30;99.90
13665;DHT22;6905;50.770;6.730;2023-09-18T06:25:17;20.30;99.90
13665;DHT22;6905;50.770;6.730;2023-09-18T06:27:50;20.30;99.90
13665;DHT22;6905;50.770;6.730;2023-09-18T06:30:20;20.30;99.90
13665;DHT22;6905;50.770;6.730;2023-09-18T06:32:53;20.30;99.90
13665;DHT22;6905;50.770;6.730;2023-09-18T06:35:20;20.40;99.90
13665;DHT22;6905;50.770;6.730;2023-09-18T06:37:47;20.40;99.90
13665;DHT22;6905;50.770;6.730;2023-09-18T06:40:20;20.40;99.90
13665;DHT22;6905;50.770;6.730;2023-09-18T06:42:47;20.40;99.90
13665;DHT22;6905;50.770;6.730;2023-09-18T06:45:16;20.50;99.90
13665;DHT22;6905;50.770;6.730;2023-09-18T06:47:43;20.50;99.90
13665;DHT22;6905;50.770;6.730;2023-09-18T06:50:16;20.50;99.90
13665;DHT22;6905;50.770;6.730;2023-09-18T06:52:44;20.50;99.90
13665;DHT22;6905;50.770;6.730;2023-09-18T06:55:14;20.50;99.90
13665;DHT22;6905;50.770;6.730;2023-09-18T06:57:42;20.50;99.90
13665;DHT22;6905;50.770;6.730;2023-09-18T07:00:10;20.60;99.90
13665;DHT22;6905;50.770;6.730;2023-09-18T07:02:37;20.60;99.90
13665;DHT22;6905;50.770;6.730;2023-09-18T07:05:04;20.60;99.90
13665;DHT22;6905;50.770;6.730;2023-09-18T07:07:33;20.60;99.90
13665;DHT22;6905;50.770;6.730;2023-09-18T07:10:00;20.60;99.90
13665;DHT22;6905;50.770;6.730;2023-09-18T07:12:27;20.70;99.90
13665;DHT22;6905;50.770;6.730;2023-09-18T07:15:01;20.70;99.90
13665;DHT22;6905;50.770;6.730;2023-09-18T07:17:30;20.70;99.90
13665;DHT22;6905;50.770;6.730;2023-09-18T07:19:57;20.70;99.90
13665;DHT22;6905;50.770;6.730;2023-09-18T07:22:24;20.70;99.90
13665;DHT22;6905;50.770;6.730;2023-09-18T07:24:55;20.70;99.90
13665;DHT22;6905;50.770;6.730;2023-09-18T07:27:22;20.70;99.90
13665;DHT22;6905;50.770;6.730;2023-09-18T07:29:49;20.60;99.90
13665;DHT22;6905;50.770;6.730;2023-09-18T07:32:18;20.70;99.90
13665;DHT22;6905;50.770;6.730;2023-09-18T07:34:46;20.70;99.90
13665;DHT22;6905;50.770;6.730;2023-09-18T07:37:13;20.70;99.90
13665;DHT22;6905;50.770;6.730;2023-09-18T07:39:41;20.80;99.90
13665;DHT22;6905;50.770;6.730;2023-09-18T07:42:10;20.80;99.90
13665;DHT22;6905;50.770;6.730;2023-09-18T07:44:39;20.80;99.90
13665;DHT22;6905;50.770;6.730;2023-09-18T07:47:05;20.80;99.90
13665;DHT22;6905;50.770;6.730;2023-09-18T07:49:37;20.80;99.90
13665;DHT22;6905;50.770;6.730;2023-09-18T07:52:06;20.80;99.90
13665;DHT22;6905;50.770;6.730;2023-09-18T07:54:34;20.90;99.90
13665;DHT22;6905;50.770;6.730;2023-09-18T07:57:01;20.90;99.90
13665;DHT22;6905;50.770;6.730;2023-09-18T07:59:30;20.90;99.90
13665;DHT22;6905;50.770;6.730;2023-09-18T08:01:57;20.90;99.90
13665;DHT22;6905;50.770;6.730;2023-09-18T08:04:24;20.90;99.90
13665;DHT22;6905;50.770;6.730;2023-09-18T08:59:18;21.50;99.90
13665;DHT22;6905;50.770;6.730;2023-09-18T09:01:49;21.50;99.90
13665;DHT22;6905;50.770;6.730;2023-09-18T09:04:18;21.50;99.90
13665;DHT22;6905;50.770;6.730;2023-09-18T09:06:48;21.60;99.90
13665;DHT22;6905;50.770;6.730;2023-09-18T09:09:31;21.60;99.90
13665;DHT22;6905;50.770;6.730;2023-09-18T09:12:08;21.70;99.90
13665;DHT22;6905;50.770;6.730;2023-09-18T09:14:39;21.70;99.90
13665;DHT22;6905;50.770;6.730;2023-09-18T09:17:07;21.80;99.90
13665;DHT22;6905;50.770;6.730;2023-09-18T09:19:40;21.80;99.90
13665;DHT22;6905;50.770;6.730;2023-09-18T09:22:20;21.90;99.90
13665;DHT22;6905;50.770;6.730;2023-09-18T09:25:12;21.90;99.90
13665;DHT22;6905;50.770;6.730;2023-09-18T09:27:52;21.90;99.90
13665;DHT22;6905;50.770;6.730;2023-09-18T09:30:23;21.90;99.90
13665;DHT22;6905;50.770;6.730;2023-09-18T09:33:05;22.00;99.90
13665;DHT22;6905;50.770;6.730;2023-09-18T09:35:37;22.10;99.90
13665;DHT22;6905;50.770;6.730;2023-09-18T09:48:44;22.20;99.90
13665;DHT22;6905;50.770;6.730;2023-09-18T09:51:34;22.30;99.90
13665;DHT22;6905;50.770;6.730;2023-09-18T09:54:23;22.30;99.90
13665;DHT22;6905;50.770;6.730;2023-09-18T10:43:58;25.00;99.90
13665;DHT22;6905;50.770;6.730;2023-09-18T10:46:51;25.10;99.90
13665;DHT22;6905;50.770;6.730;2023-09-18T10:49:27;25.10;99.90
13665;DHT22;6905;50.770;6.730;2023-09-18T10:51:55;25.20;99.90
13665;DHT22;6905;50.770;6.730;2023-09-18T10:54:25;25.30;99.90
13665;DHT22;6905;50.770;6.730;2023-09-18T10:56:55;25.40;99.90
13665;DHT22;6905;50.770;6.730;2023-09-18T10:59:28;25.40;99.90
13665;DHT22;6905;50.770;6.730;2023-09-18T11:02:02;25.50;99.90
13665;DHT22;6905;50.770;6.730;2023-09-18T11:04:31;25.60;99.90
13665;DHT22;6905;50.770;6.730;2023-09-18T11:07:03;25.70;99.90
13665;DHT22;6905;50.770;6.730;2023-09-18T11:09:42;25.80;99.90
13665;DHT22;6905;50.770;6.730;2023-09-18T11:12:11;25.90;99.90
13665;DHT22;6905;50.770;6.730;2023-09-18T11:14:48;26.10;99.90
13665;DHT22;6905;50.770;6.730;2023-09-18T11:17:37;26.30;99.90
13665;DHT22;6905;50.770;6.730;2023-09-18T11:20:09;26.20;99.90
13665;DHT22;6905;50.770;6.730;2023-09-18T11:22:39;26.30;99.90
13665;DHT22;6905;50.770;6.730;2023-09-18T11:25:30;26.30;99.90
13665;DHT22;6905;50.770;6.730;2023-09-18T11:28:08;26.60;99.90
13665;DHT22;6905;50.770;6.730;2023-09-18T11:30:58;26.50;99.90
13665;DHT22;6905;50.770;6.730;2023-09-18T11:33:41;26.60;99.90
13665;DHT22;6905;50.770;6.730;2023-09-18T11:36:30;26.70;99.90
13665;DHT22;6905;50.770;6.730;2023-09-18T11:39:06;26.70;99.90
13665;DHT22;6905;50.770;6.730;2023-09-18T11:41:49;26.40;99.90
13665;DHT22;6905;50.770;6.730;2023-09-18T12:13:54;27.30;99.90
13665;DHT22;6905;50.770;6.730;2023-09-18T12:16:37;27.40;99.90
13665;DHT22;6905;50.770;6.730;2023-09-18T12:19:34;27.40;99.90
13665;DHT22;6905;50.770;6.730;2023-09-18T12:22:33;27.30;99.90
13665;DHT22;6905;50.770;6.730;2023-09-18T12:25:15;27.50;99.90
13665;DHT22;6905;50.770;6.730;2023-09-18T12:27:46;27.60;99.90
13665;DHT22;6905;50.770;6.730;2023-09-18T12:30:36;27.80;99.90
13665;DHT22;6905;50.770;6.730;2023-09-18T12:33:13;27.90;99.90
13665;DHT22;6905;50.770;6.730;2023-09-18T12:36:19;28.00;99.90
13665;DHT22;6905;50.770;6.730;2023-09-18T12:38:58;27.90;99.90
13665;DHT22;6905;50.770;6.730;2023-09-18T12:42:04;27.90;99.90
13665;DHT22;6905;50.770;6.730;2023-09-18T12:48:23;28.00;99.90
13665;DHT22;6905;50.770;6.730;2023-09-18T12:50:54;28.10;99.90
13665;DHT22;6905;50.770;6.730;2023-09-18T14:30:10;27.40;99.90
13665;DHT22;6905;50.770;6.730;2023-09-18T14:32:40;27.40;99.90
13665;DHT22;6905;50.770;6.730;2023-09-18T14:35:15;27.40;99.90
13665;DHT22;6905;50.770;6.730;2023-09-18T14:37:48;27.40;99.90
13665;DHT22;6905;50.770;6.730;2023-09-18T14:40:20;27.40;99.90
13665;DHT22;6905;50.770;6.730;2023-09-18T14:42:52;27.50;99.90
13665;DHT22;6905;50.770;6.730;2023-09-18T14:45:26;27.40;99.90
13665;DHT22;6905;50.770;6.730;2023-09-18T14:47:53;27.40;99.90
13665;DHT22;6905;50.770;6.730;2023-09-18T14:50:22;27.40;99.90
13665;DHT22;6905;50.770;6.730;2023-09-18T14:53:02;27.30;99.90
13665;DHT22;6905;50.770;6.730;2023-09-18T14:55:30;27.30;99.90
13665;DHT22;6905;50.770;6.730;2023-09-18T14:58:01;27.20;99.90
13665;DHT22;6905;50.770;6.730;2023-09-18T15:00:30;27.20;99.90
13665;DHT22;6905;50.770;6.730;2023-09-18T15:03:07;27.30;99.90
13665;DHT22;6905;50.770;6.730;2023-09-18T15:05:51;27.30;99.90
13665;DHT22;6905;50.770;6.730;2023-09-18T15:08:27;27.50;99.90
13665;DHT22;6905;50.770;6.730;2023-09-18T15:11:00;27.50;99.90
13665;DHT22;6905;50.770;6.730;2023-09-18T15:13:44;27.40;99.90
13665;DHT22;6905;50.770;6.730;2023-09-18T15:16:14;27.30;99.90
13665;DHT22;6905;50.770;6.730;2023-09-18T15:18:41;27.20;99.90
13665;DHT22;6905;50.770;6.730;2023-09-18T15:21:12;27.20;99.90
13665;DHT22;6905;50.770;6.730;2023-09-18T15:23:39;27.10;99.90
13665;DHT22;6905;50.770;6.730;2023-09-18T15:26:08;26.90;99.90
13665;DHT22;6905;50.770;6.730;2023-09-18T15:28:41;26.70;99.90
13665;DHT22;6905;50.770;6.730;2023-09-18T15:31:08;26.70;99.90
13665;DHT22;6905;50.770;6.730;2023-09-18T15:34:13;26.80;99.90
13665;DHT22;6905;50.770;6.730;2023-09-18T15:37:10;26.80;99.90
13665;DHT22;6905;50.770;6.730;2023-09-18T15:40:07;26.90;99.90
13665;DHT22;6905;50.770;6.730;2023-09-18T15:42:36;26.80;99.90
13665;DHT22;6905;50.770;6.730;2023-09-18T15:45:30;26.70;99.90
13665;DHT22;6905;50.770;6.730;2023-09-18T15:47:58;26.50;99.90
13665;DHT22;6905;50.770;6.730;2023-09-18T15:50:27;26.30;99.90
13665;DHT22;6905;50.770;6.730;2023-09-18T15:52:55;26.10;99.90
13665;DHT22;6905;50.770;6.730;2023-09-18T15:55:21;25.90;99.90
13665;DHT22;6905;50.770;6.730;2023-09-18T15:57:49;25.80;99.90
13665;DHT22;6905;50.770;6.730;2023-09-18T16:00:17;25.70;99.90
13665;DHT22;6905;50.770;6.730;2023-09-18T16:02:49;25.70;99.90
13665;DHT22;6905;50.770;6.730;2023-09-18T16:05:25;25.80;99.90
13665;DHT22;6905;50.770;6.730;2023-09-18T16:11:14;25.80;99.90
13665;DHT22;6905;50.770;6.730;2023-09-18T16:13:48;25.70;99.90
13665;DHT22;6905;50.770;6.730;2023-09-18T16:16:25;25.60;99.90
13665;DHT22;6905;50.770;6.730;2023-09-18T16:18:55;25.60;99.90
13665;DHT22;6905;50.770;6.730;2023-09-18T16:21:40;25.50;99.90
13665;DHT22;6905;50.770;6.730;2023-09-18T16:24:24;25.40;99.90
13665;DHT22;6905;50.770;6.730;2023-09-18T16:30:02;25.10;99.90
13665;DHT22;6905;50.770;6.730;2023-09-18T16:32:40;25.00;99.90
13665;DHT22;6905;50.770;6.730;2023-09-18T16:35:31;24.80;99.90
13665;DHT22;6905;50.770;6.730;2023-09-18T16:38:14;24.70;99.90
13665;DHT22;6905;50.770;6.730;2023-09-18T16:43:51;24.60;99.90
13665;DHT22;6905;50.770;6.730;2023-09-18T16:46:37;24.50;99.90
13665;DHT22;6905;50.770;6.730;2023-09-18T16:49:28;24.40;99.90
13665;DHT22;6905;50.770;6.730;2023-09-18T16:52:02;24.30;99.90
13665;DHT22;6905;50.770;6.730;2023-09-18T22:32:02;17.80;99.90
13665;DHT22;6905;50.770;6.730;2023-09-18T22:35:24;17.80;99.90
